Aérodrome :
LOGIN :

S'inscrire | Disclaimer

   EN    FR    IT 

 










Légende :    VFR   VFR Marginal   IFR   IFR Intensif   IFR Très Intensif
Visi : 
Plafond : 
>= 8 km
>= 3000ft
5 à 8 km
1000 à 3000 ft
1500m à 5 km
500 à 1000 ft
800 à 1500m
200 à 500 ft
< 800m
< 200 ft
Symboles :   Orages  Brouillard  Fortes neiges  Fortes précipitations  Vent > 20 kt
SIGMETs :   Divers  Orages  Givrage  Turbulence  Onde Orograph.  Cendres Volcan.







- Altitude de l'aérodrome : 290 ft
- Code IATA : LAI
- Voir les cartes d'approche


LFRO - Lannion

DERNIER METAR :
  • 162030Z AUTO 25012KT 230V290 9999 FEW011/// SCT028/// BKN036/// ///TCU 07/05 Q1009 TEMPO 4000 SHRA FEW013CB BKN015TCU

METARs EXPIRÉS :
  • 162000Z AUTO 27011KT 9999 FEW029 07/04 Q1008 TEMPO 4000 SHRA FEW013CB BKN015TCU
  • 161930Z AUTO 27011KT 9999 FEW027 SCT120 07/05 Q1008 TEMPO 4000 SHRA FEW013CB BKN015TCU
  • 161900Z AUTO 28011KT 9999 FEW025/// BKN041/// BKN054/// ///TCU 07/05 Q1008 TEMPO 4000 SHRA FEW013CB BKN015TCU
  • 161830Z AUTO 28013KT 9999 FEW020/// BKN043/// OVC050/// ///CB 08/05 Q1008 TEMPO 4000 SHRA
  • 161800Z AUTO 27007KT 9999 BKN018/// BKN027/// OVC035/// ///CB 08/07 Q1008 TEMPO 4000 SHRA

TAF AMD TAF LFRO
Valide du 16 à 18h jusqu'au 17 à 18h UTC


161707Z 1618/1718 28012KT 9999 SCT018 SCT035
TEMPO 1618/1715 4000 SHRA FEW013CB BKN015TCU
PROB30
TEMPO 1700/1704 TSRAGS SCT013CB
BECMG 1701/1703 31015G28KT
BECMG 1713/1715 01009KT
Pas de NOTAMs connus pour ce terrain.



MET'MAP, la Météo Aéronautique d'un coup d'oeil ! - Copyright ORBIFLY Décembre 2007 - Disclaimer

ORBIFLY MET'MAP TEAM :

Programmation & Développement : Alexandra Zaïnal
Conception & Développement : Baudouin d'Aumeries
Co-Programmation & Développement : Marc-Olivier Méhu
Soutien technique & logistique : Manuel Goepfert

Contact : metmap@orbifly.com




SOURCES & CREDITS :

   NOAA